This is the latest recevied weather packets stored in our database for station/object SP8PRZ-1. If no packets are shown the sender has not sent any weather packets the latest 10 day(s).
| Time | Temp. | Humidity | Pressure | Rain* | Wind** | Luminosity | Snow |
|---|---|---|---|---|---|---|---|
| 1788061882 | 10.56° C | 99% | 1024 hPa | - | - | - | - |
| 1788059481 | 10.56° C | 98% | 1023.8 hPa | - | - | - | - |
| 1788057079 | 11.11° C | 98% | 1023.6 hPa | - | - | - | - |
| 1788054677 | 11.11° C | 99% | 1023.6 hPa | - | - | - | - |
| 1788052275 | 11.67° C | 99% | 1023.7 hPa | - | - | - | - |
| 1788049873 | 12.22° C | 99% | 1023.5 hPa | - | - | - | - |
| 1788047471 | 12.22° C | 99% | 1023.4 hPa | - | - | - | - |
| 1788045070 | 12.22° C | 98% | 1023.3 hPa | - | - | - | - |
| 1788042668 | 12.22° C | 98% | 1023.2 hPa | - | - | - | - |
| 1788040282 | 12.78° C | 97% | 1023.2 hPa | - | - | - | - |
| 1788037880 | 13.33° C | 98% | 1023.4 hPa | - | - | - | - |
| 1788035479 | 13.33° C | 98% | 1023.5 hPa | - | - | - | - |
| 1788033077 | 13.89° C | 97% | 1023.3 hPa | - | - | - | - |
| 1788030675 | 14.44° C | 97% | 1023.1 hPa | - | - | - | - |
| 1788028274 | 15° C | 97% | 1023.2 hPa | - | - | - | - |
| 1788025872 | 15.56° C | 96% | 1022.8 hPa | - | - | - | - |
| 1788023470 | 16.67° C | 95% | 1022.6 hPa | - | - | - | - |
| 1788021068 | 18.33° C | 92% | 1022.3 hPa | - | - | - | - |
| 1788019671 | 18.89° C | 94% | 1022.5 hPa | - | - | - | - |
| 1788017269 | 19.44° C | 96% | 1022.5 hPa | - | - | - | - |
| 1788014867 | 19.44° C | 93% | 1022.2 hPa | - | - | - | - |
| 1788012466 | 18.33° C | 96% | 1022.3 hPa | - | - | - | - |
| 1788010063 | 17.22° C | 97% | 1022.6 hPa | - | - | - | - |
| 1788007662 | 17.22° C | 95% | 1022.3 hPa | - | - | - | - |
| 1788005260 | 17.22° C | 94% | 1022 hPa | - | - | - | - |
* Rain since midnight (hover to see other rain measurements)
** Current wind speed in m/s (hover to see current wind gust speed)